Hlavní strana
METAR-TAF:

METAR-TAF

Letiště :

Letiště Orio al Serio

Bergamo, Itálie

zeměpisná šířka: 45-40N, zeměpisná délka: 009-42E, výška: 238 m

Aktuální stav počasí

Zpráva byla vytvořena před 40 minutami, v 20:20 UTC
Severní vítr 7 kt
Teplota 24°C
Vlhkost vzduchu 69%
Tlak 1018 hPa
Viditelnost 10 km a více
Skoro jasno ve výšce 7000 ft

METAR: LIME 192020Z 01007KT 9999 FEW070 24/18 Q1018 NOSIG

Čas: 23:00 (21:00 UTC)

Předpověď počasí

Zpráva byla vytvořena před 4 hodinami a 0 minutami, v 17:00 UTC
Předpověď platná od 19 v 18 UTC do 20 v 18 UTC
vítr z různých směrů 5 kt
Viditelnost 10 km a více
Polojasno ve výšce 4000 ft

TAF: LIME 191700Z 1918/2018 VRB05KT 9999 SCT040

Stav a předpovědi počasí z více než 4 000 letišť (zprávy METAR a TAF).

Červené a žluté tečky na mapě představují dostupné meteorologické stanice.

Když kurzor umístíte na tečku, zobrazí se název stanice.

Pak kliknutím zobrazíte stav a předpověď počasí.

Chcete-li změnit mapu, kliknutím na zelené tlačítko se znaménkem +mapu přiblížíte, kliknutím na zelené tlačítko se znaménkem – mapu oddálíte a kliknutím na zelené šipky přejdete na sousední mapy.


METAR-TAF: